Time;durP1;ratioP1;P1;durP2;ratioP2;P2;SDS_P1;SDS_P2;PMS_P1;PMS_P2;Temp;Humidity;BMP_temperature;BMP_pressure;BME280_temperature;BME280_humidity;BME280_pressure;Samples;Min_cycle;Max_cycle;Signal;HPM_P1;HPM_P2
2022/03/14 00:00:43;;;;;;;2.38;2.17;;;;;;;4.54;99.75;96401.81;6272043;22;20085;-59
2022/03/14 00:03:10;;;;;;;3.40;1.90;;;;;;;4.60;98.89;96411.91;6300075;22;20008;-60
2022/03/14 00:05:36;;;;;;;2.10;2.00;;;;;;;4.61;98.90;96410.16;6299033;22;20338;-59
2022/03/14 00:08:01;;;;;;;2.10;2.00;;;;;;;4.68;98.97;96403.63;6299293;22;20019;-60
2022/03/14 00:10:27;;;;;;;1.98;1.88;;;;;;;4.66;99.75;96413.31;6299617;22;20003;-60
2022/03/14 00:12:55;;;;;;;2.63;2.50;;;;;;;4.58;100.00;96404.19;6299278;22;20042;-60
2022/03/14 00:15:22;;;;;;;2.65;2.55;;;;;;;4.54;100.00;96407.88;6299393;22;20451;-59
2022/03/14 00:17:49;;;;;;;2.00;1.90;;;;;;;4.47;100.00;96406.53;6299380;22;19999;-60
2022/03/14 00:20:15;;;;;;;2.05;1.95;;;;;;;4.43;100.00;96418.94;6299677;22;20014;-60
2022/03/14 00:22:41;;;;;;;2.00;1.90;;;;;;;4.46;100.00;96423.09;6299435;22;19999;-59
2022/03/14 00:25:09;;;;;;;2.00;1.90;;;;;;;4.51;99.70;96413.25;6299456;22;20006;-60
2022/03/14 00:27:37;;;;;;;2.15;2.00;;;;;;;4.48;99.42;96407.41;6299328;22;20007;-58
2022/03/14 00:30:09;;;;;;;2.50;2.30;;;;;;;4.44;100.00;96407.56;6299361;22;20476;-59
2022/03/14 00:32:35;;;;;;;2.00;1.90;;;;;;;4.41;100.00;96412.94;6299336;22;20451;-60
2022/03/14 00:35:05;;;;;;;2.20;2.10;;;;;;;4.44;100.00;96414.53;6298943;22;20032;-60
2022/03/14 00:37:30;;;;;;;2.13;1.98;;;;;;;4.43;100.00;96405.03;6298973;22;20461;-60
2022/03/14 00:39:56;;;;;;;2.28;2.17;;;;;;;4.44;100.00;96420.59;6299832;22;19999;-60
2022/03/14 00:42:22;;;;;;;2.05;1.95;;;;;;;4.38;100.00;96426.13;6299776;22;20052;-60
2022/03/14 00:44:48;;;;;;;2.67;2.30;;;;;;;4.33;100.00;96428.19;6299188;22;20007;-59
2022/03/14 00:47:15;;;;;;;2.85;2.55;;;;;;;4.27;100.00;96431.94;6299355;22;20025;-59
2022/03/14 00:49:40;;;;;;;2.30;2.20;;;;;;;4.30;100.00;96433.56;6298966;22;20471;-59
2022/03/14 00:52:06;;;;;;;2.65;2.20;;;;;;;4.27;100.00;96431.94;6272618;22;20003;-59
2022/03/14 00:54:31;;;;;;;2.38;2.28;;;;;;;4.32;100.00;96423.88;6299154;22;20003;-59
2022/03/14 00:56:57;;;;;;;2.50;2.30;;;;;;;4.44;100.00;96424.97;6298902;22;20010;-60
2022/03/14 00:59:24;;;;;;;2.80;2.65;;;;;;;4.47;100.00;96424.78;6299094;22;20350;-60
2022/03/14 01:01:50;;;;;;;2.78;2.40;;;;;;;4.52;100.00;96421.94;6300074;22;20067;-59
2022/03/14 01:04:15;;;;;;;2.90;2.70;;;;;;;4.49;100.00;96420.31;6299058;22;20007;-59
2022/03/14 01:06:40;;;;;;;2.50;2.40;;;;;;;4.53;100.00;96416.66;6299154;22;20047;-60
2022/03/14 01:09:07;;;;;;;2.38;2.28;;;;;;;4.49;100.00;96422.94;6299336;22;20052;-60
2022/03/14 01:11:33;;;;;;;2.80;2.60;;;;;;;4.47;100.00;96413.53;6299273;22;20545;-60
2022/03/14 01:13:58;;;;;;;2.58;2.47;;;;;;;4.40;100.00;96413.03;6271997;22;20007;-59
2022/03/14 01:16:24;;;;;;;2.83;2.63;;;;;;;4.33;100.00;96404.72;6299488;22;20006;-59
2022/03/14 01:18:49;;;;;;;3.40;3.20;;;;;;;4.44;100.00;96409.31;6299112;22;20003;-60
2022/03/14 01:21:15;;;;;;;3.00;2.90;;;;;;;4.38;100.00;96407.06;6298994;22;20009;-59
2022/03/14 01:23:40;;;;;;;3.13;2.92;;;;;;;4.33;100.00;96406.50;6299242;22;20010;-60
2022/03/14 01:26:08;;;;;;;2.85;2.65;;;;;;;4.34;100.00;96410.78;6299016;22;20008;-59
2022/03/14 01:28:34;;;;;;;2.60;2.50;;;;;;;4.34;100.00;96402.97;6298795;22;20007;-60
2022/03/14 01:30:59;;;;;;;3.65;3.35;;;;;;;4.40;100.00;96400.00;6299187;22;20600;-59
2022/03/14 01:33:25;;;;;;;3.38;3.17;;;;;;;4.36;100.00;96411.53;6299322;22;20010;-61
2022/03/14 01:35:50;;;;;;;3.50;3.30;;;;;;;4.27;100.00;96407.66;6298662;22;20030;-59
2022/03/14 01:38:15;;;;;;;3.90;3.60;;;;;;;4.24;100.00;96408.66;6271909;22;20003;-60
2022/03/14 01:40:41;;;;;;;3.75;3.45;;;;;;;4.23;100.00;96414.81;6298200;22;20479;-60
2022/03/14 01:43:06;;;;;;;6.07;4.80;;;;;;;4.25;100.00;96415.56;6298789;22;20074;-60
2022/03/14 01:45:32;;;;;;;5.40;4.90;;;;;;;4.25;100.00;96415.56;6297729;22;20000;-60
2022/03/14 01:47:57;;;;;;;4.15;3.75;;;;;;;4.24;100.00;96424.31;6299522;22;20440;-60
2022/03/14 01:50:23;;;;;;;3.60;3.40;;;;;;;4.27;100.00;96426.75;6299982;22;20019;-60
2022/03/14 01:52:48;;;;;;;4.28;3.97;;;;;;;4.34;100.00;96429.03;6300276;22;20622;-60
2022/03/14 01:55:14;;;;;;;4.40;4.10;;;;;;;4.43;100.00;96433.72;6300093;22;20000;-60
2022/03/14 01:57:40;;;;;;;4.55;4.25;;;;;;;4.49;100.00;96433.38;6300060;22;20011;-60
2022/03/14 02:00:09;;;;;;;4.78;4.38;;;;;;;4.56;100.00;96428.66;6300359;22;20085;-60
2022/03/14 02:02:34;;;;;;;3.95;3.65;;;;;;;4.57;100.00;96428.56;6300337;22;20013;-60
2022/03/14 02:05:00;;;;;;;3.33;3.13;;;;;;;4.54;100.00;96436.59;6299991;22;20022;-60
2022/03/14 02:07:26;;;;;;;2.90;2.75;;;;;;;4.44;100.00;96430.19;6299630;22;20019;-59
2022/03/14 02:09:52;;;;;;;3.28;3.08;;;;;;;4.39;100.00;96427.00;6300120;22;20019;-59
2022/03/14 02:12:18;;;;;;;3.45;3.25;;;;;;;4.39;100.00;96427.81;6299502;22;20015;-60
2022/03/14 02:14:44;;;;;;;4.60;4.30;;;;;;;4.38;100.00;96430.53;6299887;22;20046;-60
2022/03/14 02:17:11;;;;;;;4.40;4.00;;;;;;;4.36;100.00;96428.00;6299982;22;19999;-61
2022/03/14 02:19:38;;;;;;;3.97;3.67;;;;;;;4.35;100.00;96425.50;6300370;22;20324;-60
2022/03/14 02:22:05;;;;;;;3.30;3.10;;;;;;;4.50;100.00;96436.84;6299727;22;20007;-60
2022/03/14 02:24:31;;;;;;;3.78;3.55;;;;;;;4.45;100.00;96437.06;6299689;22;20025;-60
2022/03/14 02:26:57;;;;;;;4.22;3.92;;;;;;;4.37;100.00;96449.72;6299755;22;20407;-59
2022/03/14 02:29:24;;;;;;;4.15;3.85;;;;;;;4.35;100.00;96436.75;6299840;22;20007;-60
2022/03/14 02:31:50;;;;;;;3.60;3.40;;;;;;;4.35;100.00;96441.13;6299799;22;20014;-60
2022/03/14 02:34:15;;;;;;;4.57;4.18;;;;;;;4.32;100.00;96446.53;6300198;22;20003;-60
2022/03/14 02:36:41;;;;;;;5.25;4.03;;;;;;;4.33;100.00;96454.25;6299453;22;20051;-60
2022/03/14 02:39:07;;;;;;;3.42;3.22;;;;;;;4.34;100.00;96455.09;6299925;22;20007;-60
2022/03/14 02:41:32;;;;;;;3.63;3.35;;;;;;;4.34;100.00;96455.94;6299797;22;20376;-60
2022/03/14 02:43:59;;;;;;;3.28;3.08;;;;;;;4.39;100.00;96453.06;6299383;22;20030;-60
2022/03/14 02:46:25;;;;;;;3.38;3.17;;;;;;;4.39;100.00;96453.06;6299994;22;20013;-60
2022/03/14 02:48:50;;;;;;;3.90;3.60;;;;;;;4.44;100.00;96457.13;6299410;22;20011;-60
2022/03/14 02:51:16;;;;;;;3.17;2.97;;;;;;;4.38;100.00;96451.41;6299583;22;20043;-60
2022/03/14 02:53:41;;;;;;;3.58;3.28;;;;;;;4.37;100.00;96454.94;6299675;22;20009;-60
2022/03/14 02:56:07;;;;;;;3.78;3.58;;;;;;;4.34;100.00;96461.13;6299440;22;20006;-60
2022/03/14 02:58:32;;;;;;;3.33;3.13;;;;;;;4.36;100.00;96463.66;6299935;22;20004;-59
2022/03/14 03:01:00;;;;;;;2.85;2.65;;;;;;;4.36;100.00;96461.88;6272664;22;20354;-60
2022/03/14 03:03:27;;;;;;;2.90;2.70;;;;;;;4.40;100.00;96466.00;6299985;22;20061;-59
2022/03/14 03:05:53;;;;;;;4.53;4.13;;;;;;;4.37;100.00;96462.75;6299440;22;20003;-60
2022/03/14 03:08:19;;;;;;;3.95;3.70;;;;;;;4.40;100.00;96462.56;6299562;22;20023;-60
2022/03/14 03:10:47;;;;;;;3.70;3.40;;;;;;;4.39;100.00;96460.91;6299495;22;20019;-60
2022/03/14 03:13:13;;;;;;;3.53;3.33;;;;;;;4.38;100.00;96464.44;6272495;22;20340;-60
2022/03/14 03:15:38;;;;;;;3.45;3.25;;;;;;;4.35;100.00;96462.81;6300176;22;20000;-59
2022/03/14 03:18:05;;;;;;;3.50;3.30;;;;;;;4.39;100.00;96463.50;6272557;22;20354;-60
2022/03/14 03:20:30;;;;;;;3.53;3.33;;;;;;;4.35;100.00;96456.78;6299944;22;20078;-59
2022/03/14 03:22:56;;;;;;;3.40;3.20;;;;;;;4.32;100.00;96462.16;6300116;22;20030;-59
2022/03/14 03:25:21;;;;;;;3.80;3.60;;;;;;;4.35;100.00;96468.03;6300106;22;20052;-59
2022/03/14 03:27:47;;;;;;;3.53;3.28;;;;;;;4.33;100.00;96475.09;6299251;22;20385;-59
2022/03/14 03:30:13;;;;;;;3.65;3.45;;;;;;;4.31;100.00;96471.75;6300007;22;20015;-60
2022/03/14 03:32:38;;;;;;;4.38;3.97;;;;;;;4.25;100.00;96462.47;6300089;22;19999;-59
2022/03/14 03:35:04;;;;;;;3.85;3.55;;;;;;;4.28;100.00;96467.53;6299905;22;20005;-60
2022/03/14 03:37:29;;;;;;;3.38;3.17;;;;;;;4.35;100.00;96470.63;6272518;22;20396;-60
2022/03/14 03:39:55;;;;;;;3.42;3.20;;;;;;;4.37;100.00;96470.56;6299785;22;20082;-60
2022/03/14 03:42:20;;;;;;;3.80;3.50;;;;;;;4.33;100.00;96471.66;6272577;22;20011;-60
2022/03/14 03:44:46;;;;;;;3.15;3.00;;;;;;;4.34;100.00;96475.97;6300172;22;20051;-60
2022/03/14 03:47:11;;;;;;;3.58;3.38;;;;;;;4.33;100.00;96480.31;6299917;22;20004;-61
2022/03/14 03:49:38;;;;;;;3.60;3.40;;;;;;;4.29;100.00;96490.06;6272658;22;20015;-60
2022/03/14 03:52:04;;;;;;;2.78;2.67;;;;;;;4.33;100.00;96484.69;6299479;22;20011;-60
2022/03/14 03:54:29;;;;;;;3.22;3.03;;;;;;;4.30;100.00;96494.34;6300061;22;20007;-60
2022/03/14 03:56:55;;;;;;;3.28;3.08;;;;;;;4.32;100.00;96490.84;6299906;22;20007;-61
2022/03/14 03:59:21;;;;;;;2.95;2.83;;;;;;;4.33;100.00;96490.75;6300343;22;20064;-59
2022/03/14 04:01:47;;;;;;;4.10;3.35;;;;;;;4.34;100.00;96487.22;6299774;22;20055;-60
2022/03/14 04:04:13;;;;;;;3.13;2.95;;;;;;;4.38;100.00;96483.50;6300239;22;20339;-60
2022/03/14 04:06:39;;;;;;;2.72;2.58;;;;;;;4.29;100.00;96473.59;6299742;22;20019;-60
2022/03/14 04:09:06;;;;;;;2.95;2.75;;;;;;;4.26;100.00;96485.00;6299426;22;20007;-60
2022/03/14 04:11:32;;;;;;;2.75;2.63;;;;;;;4.29;100.00;96484.03;6299851;22;20027;-60
2022/03/14 04:13:59;;;;;;;3.30;3.10;;;;;;;4.30;100.00;96488.31;6272954;22;20511;-60
2022/03/14 04:16:26;;;;;;;3.03;2.83;;;;;;;4.29;100.00;96482.25;6299736;22;20003;-60
2022/03/14 04:18:52;;;;;;;2.35;2.25;;;;;;;4.32;100.00;96485.63;6299568;22;20143;-60
2022/03/14 04:21:17;;;;;;;2.40;2.30;;;;;;;4.34;100.00;96482.00;6299851;22;20083;-60
2022/03/14 04:23:43;;;;;;;2.03;1.92;;;;;;;4.37;100.00;96481.00;6300156;22;20030;-60
2022/03/14 04:26:09;;;;;;;2.25;2.05;;;;;;;4.37;100.00;96491.44;6300047;22;20434;-60
2022/03/14 04:28:36;;;;;;;1.90;1.80;;;;;;;4.31;100.00;96490.00;6300011;22;20024;-60
2022/03/14 04:31:08;;;;;;;4.05;2.22;;;;;;;4.25;100.00;96498.97;6300064;22;20012;-60
2022/03/14 04:33:34;;;;;;;2.10;2.00;;;;;;;4.26;100.00;96503.25;6300063;22;20007;-60
2022/03/14 04:36:00;;;;;;;2.42;2.33;;;;;;;4.21;100.00;96497.47;6299795;22;20003;-60
2022/03/14 04:38:26;;;;;;;1.95;1.95;;;;;;;4.11;100.00;96494.50;6299503;22;20010;-60
2022/03/14 04:40:53;;;;;;;2.60;2.47;;;;;;;4.12;100.00;96497.97;6299416;22;20473;-60
2022/03/14 04:43:20;;;;;;;2.60;2.40;;;;;;;4.06;100.00;96500.88;6299745;22;20003;-60
2022/03/14 04:45:46;;;;;;;2.47;2.38;;;;;;;3.97;100.00;96508.28;6299894;22;20066;-60
2022/03/14 04:48:11;;;;;;;2.33;2.22;;;;;;;3.90;100.00;96509.53;6299558;22;20035;-60
2022/03/14 04:50:37;;;;;;;2.25;2.15;;;;;;;3.89;100.00;96507.00;6299858;22;20065;-60
2022/03/14 04:53:03;;;;;;;2.22;2.13;;;;;;;3.84;100.00;96515.91;6299784;22;20011;-60
2022/03/14 04:55:29;;;;;;;2.35;2.25;;;;;;;3.74;100.00;96514.69;6299768;22;20003;-60
2022/03/14 04:57:55;;;;;;;2.38;2.28;;;;;;;3.68;100.00;96513.25;6299516;22;19999;-60
2022/03/14 05:00:22;;;;;;;2.35;2.25;;;;;;;3.75;100.00;96505.94;6299744;22;19999;-60
2022/03/14 05:02:47;;;;;;;2.67;2.58;;;;;;;3.76;100.00;96501.59;6299700;22;20003;-60
2022/03/14 05:05:13;;;;;;;4.82;4.53;;;;;;;3.65;100.00;96507.34;6299396;22;20043;-60
2022/03/14 05:07:40;;;;;;;4.85;4.55;;;;;;;3.73;100.00;96506.03;6299359;22;20019;-60
2022/03/14 05:10:09;;;;;;;5.82;5.43;;;;;;;3.67;100.00;96511.56;6299656;22;20063;-60
2022/03/14 05:12:35;;;;;;;6.68;6.18;;;;;;;3.72;100.00;96509.56;6299623;22;20435;-60
2022/03/14 05:15:01;;;;;;;6.85;6.35;;;;;;;3.52;100.00;96520.16;6299690;22;19995;-60
2022/03/14 05:17:30;;;;;;;6.28;5.80;;;;;;;3.38;100.00;96513.88;6299230;22;20007;-60
2022/03/14 05:19:55;;;;;;;7.47;6.85;;;;;;;3.44;100.00;96517.94;6299535;22;20010;-60
2022/03/14 05:22:20;;;;;;;8.98;6.55;;;;;;;3.43;100.00;96517.13;6299449;22;20074;-59
2022/03/14 05:24:46;;;;;;;8.23;7.63;;;;;;;3.28;100.00;96529.09;6299584;22;20060;-59
2022/03/14 05:27:12;;;;;;;7.88;7.07;;;;;;;3.20;100.00;96536.47;6299297;22;20006;-60
2022/03/14 05:29:38;;;;;;;7.47;6.95;;;;;;;3.19;100.00;96534.78;6298680;22;20354;-60
2022/03/14 05:32:03;;;;;;;7.55;7.03;;;;;;;3.18;100.00;96547.84;6298825;22;20011;-60
2022/03/14 05:34:29;;;;;;;8.02;7.25;;;;;;;3.19;100.00;96544.34;6299884;22;20003;-60
2022/03/14 05:36:54;;;;;;;13.57;6.97;;;;;;;3.22;100.00;96545.03;6299005;22;20473;-61
2022/03/14 05:39:20;;;;;;;10.52;7.45;;;;;;;3.20;100.00;96546.03;6299398;22;20007;-60
2022/03/14 05:41:45;;;;;;;9.82;7.63;;;;;;;3.23;100.00;96545.91;6298978;22;20007;-59
2022/03/14 05:44:11;;;;;;;23.48;6.28;;;;;;;3.34;100.00;96543.59;6299290;22;20015;-60
2022/03/14 05:46:36;;;;;;;33.35;5.78;;;;;;;3.17;100.00;96553.97;6299625;22;20078;-59
2022/03/14 05:49:02;;;;;;;65.30;5.60;;;;;;;2.97;100.00;96563.59;6298976;22;20004;-59
2022/03/14 05:51:27;;;;;;;28.15;5.70;;;;;;;2.90;100.00;96563.06;6299187;22;20098;-59
2022/03/14 05:53:53;;;;;;;6.38;5.88;;;;;;;2.86;100.00;96561.50;6299140;22;20007;-59
2022/03/14 05:56:19;;;;;;;6.57;5.97;;;;;;;2.86;100.00;96575.38;6299234;22;20016;-59
2022/03/14 05:58:44;;;;;;;7.03;6.10;;;;;;;2.91;100.00;96576.91;6298975;22;20471;-59
2022/03/14 06:01:10;;;;;;;5.63;5.22;;;;;;;2.96;100.00;96585.31;6298860;22;20035;-60
2022/03/14 06:03:36;;;;;;;5.45;5.05;;;;;;;2.96;100.00;96583.56;6298941;22;20495;-59
2022/03/14 06:06:02;;;;;;;6.82;6.28;;;;;;;2.96;100.00;96585.31;6298646;22;20003;-59
2022/03/14 06:08:27;;;;;;;7.35;6.85;;;;;;;2.98;100.00;96586.94;6298833;22;20010;-59
2022/03/14 06:10:55;;;;;;;7.00;5.78;;;;;;;3.03;100.00;96593.69;6298935;22;20022;-59
2022/03/14 06:13:21;;;;;;;14.40;8.38;;;;;;;3.01;100.00;96601.59;6299020;22;20071;-59
2022/03/14 06:15:47;;;;;;;10.43;7.00;;;;;;;2.98;100.00;96599.09;6298259;22;19999;-59
2022/03/14 06:18:14;;;;;;;7.25;6.57;;;;;;;2.96;100.00;96600.94;6298775;22;20004;-60
2022/03/14 06:20:39;;;;;;;9.25;7.05;;;;;;;2.94;100.00;96597.56;6298731;22;20423;-60
2022/03/14 06:23:05;;;;;;;7.38;6.68;;;;;;;2.90;100.00;96596.03;6297921;22;20047;-59
2022/03/14 06:25:30;;;;;;;10.13;7.03;;;;;;;2.87;100.00;96602.22;6298246;22;20083;-61
2022/03/14 06:27:55;;;;;;;8.07;7.30;;;;;;;2.90;100.00;96598.63;6297725;22;20422;-60
2022/03/14 06:30:21;;;;;;;11.02;6.35;;;;;;;2.94;100.00;96607.97;6297334;22;20003;-60
2022/03/14 06:32:48;;;;;;;8.02;6.00;;;;;;;2.91;100.00;96605.50;6299748;22;20044;-60
2022/03/14 06:35:16;;;;;;;7.20;6.50;;;;;;;2.96;100.00;96598.34;6299358;22;20014;-61
2022/03/14 06:37:43;;;;;;;7.05;6.32;;;;;;;3.00;100.00;96599.91;6301001;22;20052;-60
2022/03/14 06:40:09;;;;;;;16.00;6.15;;;;;;;3.03;100.00;96596.28;6272972;22;20007;-60
2022/03/14 06:42:36;;;;;;;17.25;14.77;;;;;;;2.90;100.00;96601.22;6299169;22;20003;-61
2022/03/14 06:45:02;;;;;;;35.05;9.57;;;;;;;2.80;100.00;96603.41;6272915;22;20037;-61
2022/03/14 06:47:28;;;;;;;16.23;8.43;;;;;;;2.66;100.00;96610.13;6299403;22;19999;-62
2022/03/14 06:49:53;;;;;;;11.20;7.13;;;;;;;2.73;100.00;96615.84;6299053;22;20022;-62
2022/03/14 06:52:19;;;;;;;9.43;7.05;;;;;;;2.72;100.00;96624.56;6299395;22;20011;-61
2022/03/14 06:54:45;;;;;;;21.95;6.97;;;;;;;2.66;100.00;96623.13;6298348;22;20373;-62
2022/03/14 06:57:11;;;;;;;6.57;6.07;;;;;;;2.68;100.00;96625.63;6298734;22;20007;-61
2022/03/14 06:59:37;;;;;;;6.05;5.55;;;;;;;2.83;100.00;96621.47;6299588;22;20010;-61
2022/03/14 07:02:03;;;;;;;19.02;5.85;;;;;;;2.77;100.00;96627.81;6300063;22;20332;-62
2022/03/14 07:04:29;;;;;;;14.43;7.97;;;;;;;2.75;100.00;96632.22;6300332;22;20083;-61
2022/03/14 07:06:55;;;;;;;11.98;6.00;;;;;;;2.77;100.00;96633.03;6299457;22;20046;-61
2022/03/14 07:09:21;;;;;;;7.32;6.60;;;;;;;2.81;100.00;96637.16;6299493;22;20078;-62
2022/03/14 07:11:51;;;;;;;10.65;6.95;;;;;;;2.88;100.00;96629.06;6299579;22;20003;-61
2022/03/14 07:14:20;;;;;;;7.22;6.63;;;;;;;3.05;100.00;96631.72;6300353;22;20004;-60
2022/03/14 07:16:46;;;;;;;7.28;6.57;;;;;;;3.21;100.00;96628.41;6299506;22;20098;-60
2022/03/14 07:19:12;;;;;;;8.30;7.40;;;;;;;3.34;100.00;96633.88;6299708;22;20465;-60
2022/03/14 07:21:38;;;;;;;10.80;7.68;;;;;;;3.42;100.00;96629.94;6300315;22;20017;-60
2022/03/14 07:24:04;;;;;;;10.27;8.13;;;;;;;3.42;100.00;96636.94;6299606;22;20338;-61
2022/03/14 07:26:29;;;;;;;7.15;6.50;;;;;;;3.58;100.00;96644.84;6299749;22;20086;-59
2022/03/14 07:28:55;;;;;;;12.65;10.63;;;;;;;3.95;100.00;96644.75;6300082;22;20007;-59
2022/03/14 07:31:21;;;;;;;9.48;8.48;;;;;;;3.77;100.00;96650.00;6297962;22;19999;-61
2022/03/14 07:33:50;;;;;;;7.38;6.63;;;;;;;3.66;100.00;96650.53;6297720;22;20026;-59
2022/03/14 07:36:16;;;;;;;5.15;4.78;;;;;;;3.64;100.00;96661.94;6297826;22;20057;-59
2022/03/14 07:38:41;;;;;;;4.38;4.07;;;;;;;3.65;100.00;96655.78;6297389;22;20482;-60
2022/03/14 07:41:08;;;;;;;4.50;4.20;;;;;;;3.81;100.00;96663.69;6295113;22;20019;-60
2022/03/14 07:43:34;;;;;;;4.57;4.28;;;;;;;3.90;100.00;96660.66;6297803;22;20006;-60
2022/03/14 07:45:59;;;;;;;4.75;4.43;;;;;;;4.01;100.00;96654.91;6299442;22;20007;-58
2022/03/14 07:48:25;;;;;;;5.30;4.90;;;;;;;4.39;100.00;96657.28;6298360;22;20003;-61
2022/03/14 07:50:52;;;;;;;5.55;4.93;;;;;;;4.84;100.00;96657.53;6299178;22;20083;-60
2022/03/14 07:53:18;;;;;;;5.07;4.68;;;;;;;5.54;98.79;96655.50;6298569;22;20082;-60
2022/03/14 07:55:43;;;;;;;4.60;4.30;;;;;;;5.92;95.09;96652.44;6298709;22;20075;-60
2022/03/14 07:58:08;;;;;;;4.03;3.83;;;;;;;5.86;93.69;96658.03;6299369;22;20031;-59
2022/03/14 08:00:34;;;;;;;3.95;3.65;;;;;;;5.69;94.10;96664.22;6299000;22;20320;-59
2022/03/14 08:02:59;;;;;;;3.75;3.53;;;;;;;5.65;94.48;96663.56;6299174;22;19999;-60
2022/03/14 08:05:26;;;;;;;4.13;3.83;;;;;;;5.86;93.56;96665.88;6299595;22;20003;-60
2022/03/14 08:07:53;;;;;;;3.75;3.55;;;;;;;5.89;92.42;96663.09;6298873;22;20016;-60
2022/03/14 08:10:19;;;;;;;3.65;3.45;;;;;;;6.08;91.26;96662.88;6298773;22;19999;-60
2022/03/14 08:12:50;;;;;;;3.53;3.33;;;;;;;6.16;90.37;96662.44;6299269;22;20331;-60
2022/03/14 08:15:25;;;;;;;3.33;3.13;;;;;;;6.38;90.33;96667.22;6299512;22;20014;-60
2022/03/14 08:17:52;;;;;;;2.97;2.78;;;;;;;6.59;90.17;96662.47;6299109;22;20102;-60
2022/03/14 08:20:19;;;;;;;3.47;3.28;;;;;;;6.71;88.89;96650.41;6299236;22;20005;-60
2022/03/14 08:22:45;;;;;;;4.00;3.70;;;;;;;6.66;88.23;96669.94;6299288;22;20007;-60
2022/03/14 08:25:11;;;;;;;2.90;2.70;;;;;;;6.80;88.13;96672.56;6272086;22;20413;-59
2022/03/14 08:27:38;;;;;;;2.55;2.45;;;;;;;6.97;87.97;96676.75;6299465;22;20006;-60
2022/03/14 08:30:05;;;;;;;2.58;2.47;;;;;;;7.13;88.04;96675.81;6299005;22;20043;-60
2022/03/14 08:32:32;;;;;;;3.00;2.80;;;;;;;7.10;85.97;96676.00;6299141;22;20011;-60
2022/03/14 08:34:58;;;;;;;1.90;1.90;;;;;;;7.16;87.52;96679.03;6299284;22;19999;-60
2022/03/14 08:37:23;;;;;;;1.85;1.75;;;;;;;7.31;84.78;96681.66;6299837;22;20358;-60
2022/03/14 08:39:49;;;;;;;2.03;1.92;;;;;;;7.31;84.59;96697.38;6298355;22;20033;-60
2022/03/14 08:42:15;;;;;;;1.90;1.80;;;;;;;7.37;83.08;96699.59;6298445;22;20449;-60
2022/03/14 08:44:40;;;;;;;1.65;1.65;;;;;;;7.58;83.69;96688.66;6299115;22;20343;-60
2022/03/14 08:47:06;;;;;;;1.85;1.75;;;;;;;7.85;82.65;96693.91;6298638;22;20369;-60
2022/03/14 08:49:31;;;;;;;1.70;1.60;;;;;;;8.00;82.40;96688.63;6299318;22;20384;-60
2022/03/14 08:51:57;;;;;;;1.98;1.88;;;;;;;8.16;83.01;96688.44;6298888;22;20406;-60
2022/03/14 08:54:22;;;;;;;1.90;1.80;;;;;;;8.33;83.13;96684.66;6298613;22;19999;-59
2022/03/14 08:56:47;;;;;;;1.40;1.40;;;;;;;8.49;81.21;96688.88;6299088;22;20498;-60
2022/03/14 08:59:13;;;;;;;1.90;1.80;;;;;;;8.78;80.30;96691.31;6299288;22;20007;-60
2022/03/14 09:01:39;;;;;;;10.00;1.90;;;;;;;8.94;78.98;96693.72;6297340;22;20682;-60
2022/03/14 09:04:05;;;;;;;1.92;1.83;;;;;;;9.11;77.31;96687.28;6298208;22;20025;-60
2022/03/14 09:06:35;;;;;;;1.42;1.42;;;;;;;9.09;77.39;96694.44;6298979;22;20095;-60
2022/03/14 09:09:00;;;;;;;1.50;1.50;;;;;;;9.00;78.10;96695.94;6299264;22;20007;-59
2022/03/14 09:11:26;;;;;;;3.38;3.10;;;;;;;9.13;78.46;96698.53;6298710;22;20007;-60
2022/03/14 09:13:51;;;;;;;3.90;3.70;;;;;;;9.33;79.08;96697.09;6298907;22;20008;-60
2022/03/14 09:16:18;;;;;;;3.85;3.25;;;;;;;9.71;77.90;96688.25;6299008;22;20056;-60
2022/03/14 09:18:44;;;;;;;2.05;1.95;;;;;;;9.56;75.57;96700.72;6298356;22;20447;-60
2022/03/14 09:21:09;;;;;;;1.73;1.70;;;;;;;9.69;74.97;96694.56;6298777;22;20011;-59
2022/03/14 09:23:36;;;;;;;1.80;1.70;;;;;;;9.83;74.10;96688.28;6298556;22;20023;-60
2022/03/14 09:26:01;;;;;;;1.58;1.58;;;;;;;9.98;73.58;96684.53;6299153;22;20364;-60
2022/03/14 09:28:27;;;;;;;2.85;1.60;;;;;;;10.01;72.32;96689.56;6297504;22;20010;-60
2022/03/14 09:30:52;;;;;;;1.95;1.80;;;;;;;9.87;71.72;96680.06;6298656;22;20008;-60
2022/03/14 09:33:18;;;;;;;1.50;1.50;;;;;;;10.15;71.99;96671.91;6297909;22;20004;-59
2022/03/14 09:35:43;;;;;;;1.80;1.70;;;;;;;10.44;69.35;96671.53;6297640;22;20452;-60
2022/03/14 09:38:16;;;;;;;1.40;1.40;;;;;;;10.59;69.36;96674.78;6297967;22;20336;-60
2022/03/14 09:40:43;;;;;;;1.35;1.35;;;;;;;10.91;66.64;96673.25;6296907;22;20005;-60
2022/03/14 09:43:09;;;;;;;1.20;1.20;;;;;;;11.31;65.73;96681.50;6297250;22;20013;-60
2022/03/14 09:45:36;;;;;;;1.63;1.30;;;;;;;11.46;64.20;96663.59;6297622;22;20402;-59
2022/03/14 09:48:03;;;;;;;1.00;1.00;;;;;;;11.51;61.71;96665.03;6296958;22;20461;-59
2022/03/14 09:50:31;;;;;;;1.27;1.00;;;;;;;11.53;61.26;96663.09;6296800;22;19999;-60
2022/03/14 09:52:58;;;;;;;1.10;1.10;;;;;;;11.27;60.05;96656.34;6297095;22;19999;-58
2022/03/14 09:55:24;;;;;;;1.10;1.10;;;;;;;11.11;60.31;96667.25;6297047;22;20034;-60
2022/03/14 09:57:50;;;;;;;1.10;1.10;;;;;;;11.20;61.02;96654.31;6297071;22;20072;-60
2022/03/14 10:00:16;;;;;;;0.98;0.98;;;;;;;11.66;62.30;96660.31;6297526;22;20003;-59
2022/03/14 10:02:43;;;;;;;0.90;0.90;;;;;;;11.33;59.01;96665.53;6298135;22;20000;-58
2022/03/14 10:08:32;;;;;;;2.45;1.63;;;;;;;11.81;54.01;96660.84;6299122;22;20115;-60
2022/03/14 10:10:57;;;;;;;1.58;1.48;;;;;;;12.44;55.80;96646.88;6300948;22;20072;-57
2022/03/14 10:13:24;;;;;;;1.10;1.10;;;;;;;12.68;53.83;96651.03;6300573;22;20011;-58
2022/03/14 10:15:50;;;;;;;1.20;1.20;;;;;;;13.02;54.75;96643.66;6300452;22;20007;-58
2022/03/14 10:18:18;;;;;;;1.70;1.60;;;;;;;13.48;53.75;96631.84;6300753;22;20014;-57
2022/03/14 10:21:05;;;;;;;1.60;1.50;;;;;;;13.88;52.61;96644.16;6300331;22;20293;-60
2022/03/14 10:23:37;;;;;;;1.80;1.70;;;;;;;14.45;51.30;96641.56;6300468;22;20012;-57
2022/03/14 10:26:06;;;;;;;1.60;1.50;;;;;;;14.43;50.06;96632.09;6300051;22;20350;-57
2022/03/14 10:28:38;;;;;;;1.60;1.50;;;;;;;14.51;50.67;96640.16;6300278;22;20435;-57
2022/03/14 10:31:05;;;;;;;4.57;1.77;;;;;;;14.65;51.15;96640.66;6300812;22;20031;-57
2022/03/14 10:33:31;;;;;;;1.40;1.40;;;;;;;14.57;50.47;96638.72;6300277;22;20052;-57
2022/03/14 10:35:58;;;;;;;2.63;1.95;;;;;;;14.32;50.65;96638.38;6300370;22;20439;-57
2022/03/14 10:38:25;;;;;;;3.47;1.85;;;;;;;14.22;51.34;96648.16;6300854;22;20106;-58
2022/03/14 10:40:51;;;;;;;2.22;2.10;;;;;;;14.08;51.35;96642.31;6300079;22;20343;-58
2022/03/14 10:43:24;;;;;;;2.25;1.92;;;;;;;13.88;51.07;96644.16;6300221;22;20003;-57
2022/03/14 10:45:50;;;;;;;1.90;1.80;;;;;;;13.88;50.41;96644.97;6300324;22;20047;-58
2022/03/14 10:48:15;;;;;;;1.48;1.40;;;;;;;13.78;49.05;96646.78;6300516;22;20011;-57
2022/03/14 10:50:42;;;;;;;1.73;1.65;;;;;;;13.56;50.13;96634.63;6300012;22;20415;-57
2022/03/14 10:53:16;;;;;;;1.50;1.50;;;;;;;13.60;52.81;96630.78;6300729;22;20447;-57
2022/03/14 10:55:56;;;;;;;3.50;1.70;;;;;;;14.14;50.22;96622.38;6300043;22;19999;-60
2022/03/14 10:58:28;;;;;;;1.52;1.50;;;;;;;14.46;48.79;96627.34;6300153;22;20085;-61
2022/03/14 11:00:56;;;;;;;1.30;1.30;;;;;;;14.29;46.91;96626.28;6300095;22;20010;-59
2022/03/14 11:03:35;;;;;;;1.50;1.40;;;;;;;14.08;49.43;96626.44;6273015;22;20361;-60
2022/03/14 11:06:03;;;;;;;1.83;1.73;;;;;;;14.25;50.22;96640.75;6300429;22;20007;-59
2022/03/14 11:08:36;;;;;;;2.22;1.70;;;;;;;14.58;48.87;96641.25;6300000;22;20064;-59
2022/03/14 11:11:07;;;;;;;3.72;1.90;;;;;;;14.23;48.55;96648.00;6300160;22;20003;-59
2022/03/14 11:13:37;;;;;;;1.80;1.70;;;;;;;14.47;50.09;96636.13;6300326;22;20008;-60
2022/03/14 11:16:03;;;;;;;3.05;1.90;;;;;;;14.43;50.79;96638.22;6300248;22;20380;-59
2022/03/14 11:18:29;;;;;;;1.95;1.85;;;;;;;15.17;49.05;96630.47;6300612;22;20003;-59
2022/03/14 11:20:55;;;;;;;1.95;1.83;;;;;;;15.66;47.03;96608.06;6300420;22;20003;-59
2022/03/14 11:23:22;;;;;;;2.30;2.20;;;;;;;15.85;47.90;96603.59;6300369;22;20342;-60
2022/03/14 11:25:48;;;;;;;2.45;2.35;;;;;;;15.69;48.03;96605.13;6300310;22;20003;-59
2022/03/14 11:28:20;;;;;;;4.40;2.60;;;;;;;15.66;48.51;96609.88;6299971;22;20042;-59
2022/03/14 11:30:58;;;;;;;2.10;2.00;;;;;;;15.84;48.50;96616.03;6299907;22;20003;-60
2022/03/14 11:33:24;;;;;;;2.33;2.20;;;;;;;16.22;47.19;96612.38;6294941;22;20078;-60